sensor_id;sensor_type;location;lat;lon;timestamp;temperature;humidity
74540;SHT31;66042;51.090;-115.340;2023-07-13T00:01:53;27.17;36.31
74540;SHT31;66042;51.090;-115.340;2023-07-13T00:04:22;26.90;36.41
74540;SHT31;66042;51.090;-115.340;2023-07-13T00:06:53;26.61;36.73
74540;SHT31;66042;51.090;-115.340;2023-07-13T00:09:20;26.38;36.73
74540;SHT31;66042;51.090;-115.340;2023-07-13T00:11:56;26.22;37.40
74540;SHT31;66042;51.090;-115.340;2023-07-13T00:14:24;25.95;37.26
74540;SHT31;66042;51.090;-115.340;2023-07-13T00:16:53;25.62;38.03
74540;SHT31;66042;51.090;-115.340;2023-07-13T00:19:21;25.34;38.21
74540;SHT31;66042;51.090;-115.340;2023-07-13T00:21:48;25.07;38.04
74540;SHT31;66042;51.090;-115.340;2023-07-13T00:24:16;24.79;38.14
74540;SHT31;66042;51.090;-115.340;2023-07-13T00:26:48;24.51;38.11
74540;SHT31;66042;51.090;-115.340;2023-07-13T00:29:16;24.25;38.77
74540;SHT31;66042;51.090;-115.340;2023-07-13T00:31:43;24.04;39.40
74540;SHT31;66042;51.090;-115.340;2023-07-13T00:34:11;23.86;40.06
74540;SHT31;66042;51.090;-115.340;2023-07-13T00:36:38;23.64;40.28
74540;SHT31;66042;51.090;-115.340;2023-07-13T00:39:05;23.43;40.59
74540;SHT31;66042;51.090;-115.340;2023-07-13T00:41:31;23.26;40.91
74540;SHT31;66042;51.090;-115.340;2023-07-13T00:43:58;23.16;41.47
74540;SHT31;66042;51.090;-115.340;2023-07-13T00:46:30;23.06;41.71
74540;SHT31;66042;51.090;-115.340;2023-07-13T00:49:04;22.92;42.46
74540;SHT31;66042;51.090;-115.340;2023-07-13T00:51:41;22.83;42.80
74540;SHT31;66042;51.090;-115.340;2023-07-13T00:54:41;22.68;43.07
74540;SHT31;66042;51.090;-115.340;2023-07-13T00:57:14;22.59;43.63
74540;SHT31;66042;51.090;-115.340;2023-07-13T00:59:46;22.51;43.72
74540;SHT31;66042;51.090;-115.340;2023-07-13T01:02:20;22.47;44.03
74540;SHT31;66042;51.090;-115.340;2023-07-13T01:04:48;22.42;44.66
74540;SHT31;66042;51.090;-115.340;2023-07-13T01:07:15;22.33;44.71
74540;SHT31;66042;51.090;-115.340;2023-07-13T01:09:44;22.28;44.43
74540;SHT31;66042;51.090;-115.340;2023-07-13T01:12:11;22.22;44.12
74540;SHT31;66042;51.090;-115.340;2023-07-13T01:14:39;22.19;43.84
74540;SHT31;66042;51.090;-115.340;2023-07-13T01:17:08;22.20;43.91
74540;SHT31;66042;51.090;-115.340;2023-07-13T01:19:39;22.25;43.76
74540;SHT31;66042;51.090;-115.340;2023-07-13T01:22:11;22.29;43.14
74540;SHT31;66042;51.090;-115.340;2023-07-13T01:24:42;22.32;43.16
74540;SHT31;66042;51.090;-115.340;2023-07-13T01:27:13;22.39;43.10
74540;SHT31;66042;51.090;-115.340;2023-07-13T01:29:43;22.58;43.10
74540;SHT31;66042;51.090;-115.340;2023-07-13T01:32:14;22.84;42.71
74540;SHT31;66042;51.090;-115.340;2023-07-13T01:34:52;23.27;41.84
74540;SHT31;66042;51.090;-115.340;2023-07-13T01:37:23;23.81;41.25
74540;SHT31;66042;51.090;-115.340;2023-07-13T01:39:52;24.28;40.37
74540;SHT31;66042;51.090;-115.340;2023-07-13T01:42:19;24.71;39.59
74540;SHT31;66042;51.090;-115.340;2023-07-13T01:44:47;25.05;39.28
74540;SHT31;66042;51.090;-115.340;2023-07-13T01:47:13;25.29;38.84
74540;SHT31;66042;51.090;-115.340;2023-07-13T01:49:40;25.37;38.19
74540;SHT31;66042;51.090;-115.340;2023-07-13T01:52:07;25.16;38.00
74540;SHT31;66042;51.090;-115.340;2023-07-13T01:54:35;24.83;38.22
74540;SHT31;66042;51.090;-115.340;2023-07-13T01:57:02;24.54;38.78
74540;SHT31;66042;51.090;-115.340;2023-07-13T01:59:29;24.31;39.54
74540;SHT31;66042;51.090;-115.340;2023-07-13T02:01:58;24.10;40.61
74540;SHT31;66042;51.090;-115.340;2023-07-13T02:04:25;23.85;40.90
74540;SHT31;66042;51.090;-115.340;2023-07-13T02:06:52;23.64;41.92
74540;SHT31;66042;51.090;-115.340;2023-07-13T02:09:21;23.44;42.51
74540;SHT31;66042;51.090;-115.340;2023-07-13T02:11:48;23.28;42.87
74540;SHT31;66042;51.090;-115.340;2023-07-13T02:14:15;23.10;43.98
74540;SHT31;66042;51.090;-115.340;2023-07-13T02:16:43;22.97;44.76
74540;SHT31;66042;51.090;-115.340;2023-07-13T02:19:10;22.82;45.29
74540;SHT31;66042;51.090;-115.340;2023-07-13T02:21:37;22.67;45.94
74540;SHT31;66042;51.090;-115.340;2023-07-13T02:24:04;22.51;45.96
74540;SHT31;66042;51.090;-115.340;2023-07-13T02:26:31;22.36;45.27
74540;SHT31;66042;51.090;-115.340;2023-07-13T02:28:58;22.23;45.57
74540;SHT31;66042;51.090;-115.340;2023-07-13T02:31:25;22.10;45.86
74540;SHT31;66042;51.090;-115.340;2023-07-13T02:33:52;21.99;46.03
74540;SHT31;66042;51.090;-115.340;2023-07-13T02:36:19;21.88;46.74
74540;SHT31;66042;51.090;-115.340;2023-07-13T02:38:45;21.74;48.00
74540;SHT31;66042;51.090;-115.340;2023-07-13T02:41:15;21.63;48.59
74540;SHT31;66042;51.090;-115.340;2023-07-13T02:43:42;21.52;48.56
74540;SHT31;66042;51.090;-115.340;2023-07-13T02:46:09;21.40;48.49
74540;SHT31;66042;51.090;-115.340;2023-07-13T02:48:37;21.30;49.05
74540;SHT31;66042;51.090;-115.340;2023-07-13T02:51:05;21.22;49.46
74540;SHT31;66042;51.090;-115.340;2023-07-13T02:53:33;21.11;49.28
74540;SHT31;66042;51.090;-115.340;2023-07-13T02:56:01;21.05;49.27
74540;SHT31;66042;51.090;-115.340;2023-07-13T02:58:29;20.95;50.58
74540;SHT31;66042;51.090;-115.340;2023-07-13T03:00:56;20.89;51.19
74540;SHT31;66042;51.090;-115.340;2023-07-13T03:03:23;20.81;51.31
74540;SHT31;66042;51.090;-115.340;2023-07-13T03:05:57;20.72;51.20
74540;SHT31;66042;51.090;-115.340;2023-07-13T03:08:27;20.63;51.09
74540;SHT31;66042;51.090;-115.340;2023-07-13T03:11:03;20.55;51.00
74540;SHT31;66042;51.090;-115.340;2023-07-13T03:13:34;20.51;51.26
74540;SHT31;66042;51.090;-115.340;2023-07-13T03:16:01;20.46;51.65
74540;SHT31;66042;51.090;-115.340;2023-07-13T03:18:28;20.41;52.11
74540;SHT31;66042;51.090;-115.340;2023-07-13T03:20:56;20.35;52.28
74540;SHT31;66042;51.090;-115.340;2023-07-13T03:23:23;20.27;52.73
74540;SHT31;66042;51.090;-115.340;2023-07-13T03:26:00;20.20;53.23
74540;SHT31;66042;51.090;-115.340;2023-07-13T03:28:29;20.15;52.61
74540;SHT31;66042;51.090;-115.340;2023-07-13T03:30:59;20.10;52.83
74540;SHT31;66042;51.090;-115.340;2023-07-13T03:33:27;20.05;53.28
74540;SHT31;66042;51.090;-115.340;2023-07-13T03:35:53;19.98;53.43
74540;SHT31;66042;51.090;-115.340;2023-07-13T03:38:21;19.93;53.21
74540;SHT31;66042;51.090;-115.340;2023-07-13T03:40:48;19.89;52.99
74540;SHT31;66042;51.090;-115.340;2023-07-13T03:43:15;19.82;52.97
74540;SHT31;66042;51.090;-115.340;2023-07-13T03:45:42;19.75;52.60
74540;SHT31;66042;51.090;-115.340;2023-07-13T03:48:09;19.69;52.66
74540;SHT31;66042;51.090;-115.340;2023-07-13T03:50:36;19.64;52.64
74540;SHT31;66042;51.090;-115.340;2023-07-13T03:53:03;19.57;52.39
74540;SHT31;66042;51.090;-115.340;2023-07-13T03:55:30;19.50;52.07
74540;SHT31;66042;51.090;-115.340;2023-07-13T03:57:59;19.40;51.84
74540;SHT31;66042;51.090;-115.340;2023-07-13T04:00:54;19.36;52.03
74540;SHT31;66042;51.090;-115.340;2023-07-13T04:03:23;19.30;52.26
74540;SHT31;66042;51.090;-115.340;2023-07-13T04:05:53;19.25;52.80
74540;SHT31;66042;51.090;-115.340;2023-07-13T04:08:28;19.22;53.33
74540;SHT31;66042;51.090;-115.340;2023-07-13T04:10:59;19.19;53.18
74540;SHT31;66042;51.090;-115.340;2023-07-13T04:13:27;19.14;53.08
74540;SHT31;66042;51.090;-115.340;2023-07-13T04:15:54;19.08;53.09
74540;SHT31;66042;51.090;-115.340;2023-07-13T04:18:21;19.05;53.04
74540;SHT31;66042;51.090;-115.340;2023-07-13T04:20:51;19.01;53.49
74540;SHT31;66042;51.090;-115.340;2023-07-13T04:23:19;18.98;53.89
74540;SHT31;66042;51.090;-115.340;2023-07-13T04:25:47;18.94;54.52
74540;SHT31;66042;51.090;-115.340;2023-07-13T04:28:19;18.90;54.64
74540;SHT31;66042;51.090;-115.340;2023-07-13T04:30:48;18.85;54.79
74540;SHT31;66042;51.090;-115.340;2023-07-13T04:33:16;18.80;55.25
74540;SHT31;66042;51.090;-115.340;2023-07-13T04:35:48;18.76;55.43
74540;SHT31;66042;51.090;-115.340;2023-07-13T04:38:26;18.72;55.01
74540;SHT31;66042;51.090;-115.340;2023-07-13T04:40:57;18.67;55.24
74540;SHT31;66042;51.090;-115.340;2023-07-13T04:43:30;18.64;55.22
74540;SHT31;66042;51.090;-115.340;2023-07-13T04:46:09;18.56;55.33
74540;SHT31;66042;51.090;-115.340;2023-07-13T04:48:39;18.46;55.72
74540;SHT31;66042;51.090;-115.340;2023-07-13T04:51:07;18.40;56.15
74540;SHT31;66042;51.090;-115.340;2023-07-13T04:53:34;18.30;56.34
74540;SHT31;66042;51.090;-115.340;2023-07-13T04:56:05;18.27;56.34
74540;SHT31;66042;51.090;-115.340;2023-07-13T04:58:32;18.23;56.44
74540;SHT31;66042;51.090;-115.340;2023-07-13T05:01:04;18.16;56.22
74540;SHT31;66042;51.090;-115.340;2023-07-13T05:03:34;18.12;56.32
74540;SHT31;66042;51.090;-115.340;2023-07-13T05:06:03;18.01;56.94
74540;SHT31;66042;51.090;-115.340;2023-07-13T05:08:35;17.94;56.84
74540;SHT31;66042;51.090;-115.340;2023-07-13T05:11:03;17.92;57.17
74540;SHT31;66042;51.090;-115.340;2023-07-13T05:13:34;17.89;57.73
74540;SHT31;66042;51.090;-115.340;2023-07-13T05:16:02;17.84;58.18
74540;SHT31;66042;51.090;-115.340;2023-07-13T05:18:33;17.81;58.29
74540;SHT31;66042;51.090;-115.340;2023-07-13T05:21:02;17.78;58.32
74540;SHT31;66042;51.090;-115.340;2023-07-13T05:23:33;17.75;58.64
74540;SHT31;66042;51.090;-115.340;2023-07-13T05:26:02;17.67;58.98
74540;SHT31;66042;51.090;-115.340;2023-07-13T05:28:30;17.61;58.94
74540;SHT31;66042;51.090;-115.340;2023-07-13T05:30:57;17.58;59.04
74540;SHT31;66042;51.090;-115.340;2023-07-13T05:33:25;17.52;59.58
74540;SHT31;66042;51.090;-115.340;2023-07-13T05:35:52;17.52;59.86
74540;SHT31;66042;51.090;-115.340;2023-07-13T05:38:19;17.52;60.00
74540;SHT31;66042;51.090;-115.340;2023-07-13T05:40:47;17.53;60.06
74540;SHT31;66042;51.090;-115.340;2023-07-13T05:43:14;17.56;60.22
74540;SHT31;66042;51.090;-115.340;2023-07-13T05:45:41;17.56;60.33
74540;SHT31;66042;51.090;-115.340;2023-07-13T05:48:12;17.54;60.57
74540;SHT31;66042;51.090;-115.340;2023-07-13T05:50:39;17.50;60.67
74540;SHT31;66042;51.090;-115.340;2023-07-13T05:53:06;17.48;60.70
74540;SHT31;66042;51.090;-115.340;2023-07-13T05:55:33;17.39;61.11
74540;SHT31;66042;51.090;-115.340;2023-07-13T05:58:00;17.34;61.48
74540;SHT31;66042;51.090;-115.340;2023-07-13T06:00:27;17.30;61.59
74540;SHT31;66042;51.090;-115.340;2023-07-13T06:02:55;17.23;61.85
74540;SHT31;66042;51.090;-115.340;2023-07-13T06:05:24;17.15;62.12
74540;SHT31;66042;51.090;-115.340;2023-07-13T06:07:51;17.11;62.16
74540;SHT31;66042;51.090;-115.340;2023-07-13T06:10:18;17.13;61.88
74540;SHT31;66042;51.090;-115.340;2023-07-13T06:12:44;17.13;61.36
74540;SHT31;66042;51.090;-115.340;2023-07-13T06:15:11;17.14;60.97
74540;SHT31;66042;51.090;-115.340;2023-07-13T06:17:39;17.15;60.81
74540;SHT31;66042;51.090;-115.340;2023-07-13T06:20:06;17.17;60.49
74540;SHT31;66042;51.090;-115.340;2023-07-13T06:22:34;17.18;60.35
74540;SHT31;66042;51.090;-115.340;2023-07-13T06:25:01;17.18;60.38
74540;SHT31;66042;51.090;-115.340;2023-07-13T06:27:28;17.13;60.27
74540;SHT31;66042;51.090;-115.340;2023-07-13T06:29:55;17.09;60.34
74540;SHT31;66042;51.090;-115.340;2023-07-13T06:32:21;17.07;60.60
74540;SHT31;66042;51.090;-115.340;2023-07-13T06:34:48;17.01;60.38
74540;SHT31;66042;51.090;-115.340;2023-07-13T06:37:17;16.95;60.77
74540;SHT31;66042;51.090;-115.340;2023-07-13T06:39:44;16.90;60.58
74540;SHT31;66042;51.090;-115.340;2023-07-13T06:42:11;16.81;61.20
74540;SHT31;66042;51.090;-115.340;2023-07-13T06:44:38;16.69;61.71
74540;SHT31;66042;51.090;-115.340;2023-07-13T06:47:06;16.58;62.26
74540;SHT31;66042;51.090;-115.340;2023-07-13T06:49:32;16.49;62.69
74540;SHT31;66042;51.090;-115.340;2023-07-13T06:52:00;16.41;63.09
74540;SHT31;66042;51.090;-115.340;2023-07-13T06:54:27;16.32;63.25
74540;SHT31;66042;51.090;-115.340;2023-07-13T06:56:54;16.28;63.55
74540;SHT31;66042;51.090;-115.340;2023-07-13T06:59:21;16.23;64.24
74540;SHT31;66042;51.090;-115.340;2023-07-13T07:01:48;16.14;64.64
74540;SHT31;66042;51.090;-115.340;2023-07-13T07:04:16;16.06;64.90
74540;SHT31;66042;51.090;-115.340;2023-07-13T07:06:43;15.98;65.08
74540;SHT31;66042;51.090;-115.340;2023-07-13T07:09:11;15.95;65.33
74540;SHT31;66042;51.090;-115.340;2023-07-13T07:11:38;15.92;65.50
74540;SHT31;66042;51.090;-115.340;2023-07-13T07:14:07;15.87;65.66
74540;SHT31;66042;51.090;-115.340;2023-07-13T07:16:35;15.82;65.87
74540;SHT31;66042;51.090;-115.340;2023-07-13T07:19:02;15.76;66.01
74540;SHT31;66042;51.090;-115.340;2023-07-13T07:21:29;15.76;66.39
74540;SHT31;66042;51.090;-115.340;2023-07-13T07:23:56;15.72;66.59
74540;SHT31;66042;51.090;-115.340;2023-07-13T07:26:25;15.68;66.63
74540;SHT31;66042;51.090;-115.340;2023-07-13T07:28:52;15.65;66.94
74540;SHT31;66042;51.090;-115.340;2023-07-13T07:31:19;15.63;67.14
74540;SHT31;66042;51.090;-115.340;2023-07-13T07:33:46;15.64;67.07
74540;SHT31;66042;51.090;-115.340;2023-07-13T07:36:15;15.65;66.86
74540;SHT31;66042;51.090;-115.340;2023-07-13T07:38:43;15.64;66.85
74540;SHT31;66042;51.090;-115.340;2023-07-13T07:41:12;15.59;66.85
74540;SHT31;66042;51.090;-115.340;2023-07-13T07:43:39;15.56;67.02
74540;SHT31;66042;51.090;-115.340;2023-07-13T07:46:06;15.51;67.00
74540;SHT31;66042;51.090;-115.340;2023-07-13T07:48:33;15.52;66.95
74540;SHT31;66042;51.090;-115.340;2023-07-13T07:51:00;15.52;67.22
74540;SHT31;66042;51.090;-115.340;2023-07-13T07:53:27;15.50;67.40
74540;SHT31;66042;51.090;-115.340;2023-07-13T07:55:55;15.49;67.55
74540;SHT31;66042;51.090;-115.340;2023-07-13T07:58:22;15.45;67.82
74540;SHT31;66042;51.090;-115.340;2023-07-13T08:00:49;15.46;67.86
74540;SHT31;66042;51.090;-115.340;2023-07-13T08:03:16;15.43;68.06
74540;SHT31;66042;51.090;-115.340;2023-07-13T08:05:42;15.39;68.19
74540;SHT31;66042;51.090;-115.340;2023-07-13T08:08:09;15.38;68.33
74540;SHT31;66042;51.090;-115.340;2023-07-13T08:10:36;15.40;68.47
74540;SHT31;66042;51.090;-115.340;2023-07-13T08:13:03;15.41;68.23
74540;SHT31;66042;51.090;-115.340;2023-07-13T08:15:30;15.46;68.24
74540;SHT31;66042;51.090;-115.340;2023-07-13T08:17:57;15.51;68.33
74540;SHT31;66042;51.090;-115.340;2023-07-13T08:20:24;15.51;68.49
74540;SHT31;66042;51.090;-115.340;2023-07-13T08:22:51;15.52;68.64
74540;SHT31;66042;51.090;-115.340;2023-07-13T08:25:18;15.49;68.98
74540;SHT31;66042;51.090;-115.340;2023-07-13T08:27:46;15.37;69.63
74540;SHT31;66042;51.090;-115.340;2023-07-13T08:30:13;15.26;69.94
74540;SHT31;66042;51.090;-115.340;2023-07-13T08:32:40;15.26;69.88
74540;SHT31;66042;51.090;-115.340;2023-07-13T08:35:07;15.26;69.97
74540;SHT31;66042;51.090;-115.340;2023-07-13T08:37:34;15.25;69.99
74540;SHT31;66042;51.090;-115.340;2023-07-13T08:40:01;15.27;69.81
74540;SHT31;66042;51.090;-115.340;2023-07-13T08:50:30;15.37;69.39
74540;SHT31;66042;51.090;-115.340;2023-07-13T08:53:04;15.37;69.35
74540;SHT31;66042;51.090;-115.340;2023-07-13T08:55:36;15.31;69.55
74540;SHT31;66042;51.090;-115.340;2023-07-13T08:58:11;15.26;69.91
74540;SHT31;66042;51.090;-115.340;2023-07-13T09:01:04;15.14;70.38
74540;SHT31;66042;51.090;-115.340;2023-07-13T09:15:54;15.08;70.37
74540;SHT31;66042;51.090;-115.340;2023-07-13T09:18:30;15.07;70.10
74540;SHT31;66042;51.090;-115.340;2023-07-13T09:21:13;15.10;70.04
74540;SHT31;66042;51.090;-115.340;2023-07-13T09:23:50;15.12;70.06
74540;SHT31;66042;51.090;-115.340;2023-07-13T09:26:23;15.11;70.14
74540;SHT31;66042;51.090;-115.340;2023-07-13T09:28:57;15.07;70.22
74540;SHT31;66042;51.090;-115.340;2023-07-13T09:31:52;15.05;70.22
74540;SHT31;66042;51.090;-115.340;2023-07-13T09:34:25;15.04;70.31
74540;SHT31;66042;51.090;-115.340;2023-07-13T09:36:52;15.01;70.25
74540;SHT31;66042;51.090;-115.340;2023-07-13T09:44:38;15.02;70.52
74540;SHT31;66042;51.090;-115.340;2023-07-13T09:47:19;15.03;70.58
74540;SHT31;66042;51.090;-115.340;2023-07-13T09:50:15;15.03;70.62
74540;SHT31;66042;51.090;-115.340;2023-07-13T09:52:44;15.00;70.53
74540;SHT31;66042;51.090;-115.340;2023-07-13T09:55:29;15.02;70.38
74540;SHT31;66042;51.090;-115.340;2023-07-13T09:58:03;14.99;70.56
74540;SHT31;66042;51.090;-115.340;2023-07-13T10:01:21;14.97;70.76
74540;SHT31;66042;51.090;-115.340;2023-07-13T10:03:56;14.96;71.00
74540;SHT31;66042;51.090;-115.340;2023-07-13T10:06:23;14.93;71.35
74540;SHT31;66042;51.090;-115.340;2023-07-13T10:08:55;14.91;71.39
74540;SHT31;66042;51.090;-115.340;2023-07-13T10:11:27;14.94;71.27
74540;SHT31;66042;51.090;-115.340;2023-07-13T10:13:57;14.96;71.13
74540;SHT31;66042;51.090;-115.340;2023-07-13T10:16:34;15.00;70.89
74540;SHT31;66042;51.090;-115.340;2023-07-13T10:19:15;14.95;70.96
74540;SHT31;66042;51.090;-115.340;2023-07-13T10:22:10;14.89;71.21
74540;SHT31;66042;51.090;-115.340;2023-07-13T10:24:52;14.84;71.22
74540;SHT31;66042;51.090;-115.340;2023-07-13T10:27:22;14.81;71.32
74540;SHT31;66042;51.090;-115.340;2023-07-13T10:32:57;14.76;71.44
74540;SHT31;66042;51.090;-115.340;2023-07-13T10:35:28;14.72;71.45
74540;SHT31;66042;51.090;-115.340;2023-07-13T10:40:45;14.64;71.75
74540;SHT31;66042;51.090;-115.340;2023-07-13T10:43:45;14.61;71.86
74540;SHT31;66042;51.090;-115.340;2023-07-13T10:46:18;14.62;71.72
74540;SHT31;66042;51.090;-115.340;2023-07-13T10:48:49;14.62;71.98
74540;SHT31;66042;51.090;-115.340;2023-07-13T10:51:24;14.56;72.10
74540;SHT31;66042;51.090;-115.340;2023-07-13T10:54:34;14.52;72.22
74540;SHT31;66042;51.090;-115.340;2023-07-13T10:56:52;14.51;72.24
74540;SHT31;66042;51.090;-115.340;2023-07-13T10:59:34;14.51;72.19
74540;SHT31;66042;51.090;-115.340;2023-07-13T11:04:39;14.49;72.17
74540;SHT31;66042;51.090;-115.340;2023-07-13T11:10:04;14.54;71.96
74540;SHT31;66042;51.090;-115.340;2023-07-13T11:12:53;14.55;71.98
74540;SHT31;66042;51.090;-115.340;2023-07-13T11:15:29;14.59;71.85
74540;SHT31;66042;51.090;-115.340;2023-07-13T11:18:19;14.59;71.73
74540;SHT31;66042;51.090;-115.340;2023-07-13T11:20:50;14.60;71.43
74540;SHT31;66042;51.090;-115.340;2023-07-13T11:23:20;14.64;71.35
74540;SHT31;66042;51.090;-115.340;2023-07-13T11:25:56;14.66;71.27
74540;SHT31;66042;51.090;-115.340;2023-07-13T11:28:25;14.70;71.15
74540;SHT31;66042;51.090;-115.340;2023-07-13T11:33:48;14.74;71.07
74540;SHT31;66042;51.090;-115.340;2023-07-13T11:36:21;14.74;70.88
74540;SHT31;66042;51.090;-115.340;2023-07-13T11:41:43;14.68;71.07
74540;SHT31;66042;51.090;-115.340;2023-07-13T11:44:18;14.67;71.04
74540;SHT31;66042;51.090;-115.340;2023-07-13T11:46:51;14.65;71.25
74540;SHT31;66042;51.090;-115.340;2023-07-13T11:49:42;14.63;71.16
74540;SHT31;66042;51.090;-115.340;2023-07-13T11:52:32;14.60;71.24
74540;SHT31;66042;51.090;-115.340;2023-07-13T11:55:04;14.60;71.19
74540;SHT31;66042;51.090;-115.340;2023-07-13T11:57:47;14.58;71.25
74540;SHT31;66042;51.090;-115.340;2023-07-13T12:00:28;14.55;71.67
74540;SHT31;66042;51.090;-115.340;2023-07-13T12:03:01;14.55;71.43
74540;SHT31;66042;51.090;-115.340;2023-07-13T12:05:30;14.53;71.31
74540;SHT31;66042;51.090;-115.340;2023-07-13T12:07:58;14.56;71.44
74540;SHT31;66042;51.090;-115.340;2023-07-13T12:10:34;14.58;71.63
74540;SHT31;66042;51.090;-115.340;2023-07-13T12:13:03;14.53;71.88
74540;SHT31;66042;51.090;-115.340;2023-07-13T12:15:37;14.55;71.96
74540;SHT31;66042;51.090;-115.340;2023-07-13T12:18:19;14.55;71.90
74540;SHT31;66042;51.090;-115.340;2023-07-13T12:20:49;14.57;71.88
74540;SHT31;66042;51.090;-115.340;2023-07-13T12:23:24;14.52;72.12
74540;SHT31;66042;51.090;-115.340;2023-07-13T12:26:05;14.48;72.16
74540;SHT31;66042;51.090;-115.340;2023-07-13T12:28:35;14.50;72.12
74540;SHT31;66042;51.090;-115.340;2023-07-13T12:33:58;14.57;71.93
74540;SHT31;66042;51.090;-115.340;2023-07-13T12:37:00;14.57;72.08
74540;SHT31;66042;51.090;-115.340;2023-07-13T12:39:29;14.60;71.96
74540;SHT31;66042;51.090;-115.340;2023-07-13T12:44:57;14.58;72.10
74540;SHT31;66042;51.090;-115.340;2023-07-13T12:47:30;14.60;71.88
74540;SHT31;66042;51.090;-115.340;2023-07-13T12:50:18;14.58;71.90
74540;SHT31;66042;51.090;-115.340;2023-07-13T12:52:53;14.53;71.85
74540;SHT31;66042;51.090;-115.340;2023-07-13T12:55:28;14.43;71.99
74540;SHT31;66042;51.090;-115.340;2023-07-13T12:57:59;14.39;72.09
74540;SHT31;66042;51.090;-115.340;2023-07-13T13:00:35;14.40;71.95
74540;SHT31;66042;51.090;-115.340;2023-07-13T13:03:07;14.41;72.00
74540;SHT31;66042;51.090;-115.340;2023-07-13T13:08:48;14.48;71.55
74540;SHT31;66042;51.090;-115.340;2023-07-13T13:11:18;14.49;71.43
74540;SHT31;66042;51.090;-115.340;2023-07-13T13:13:48;14.53;71.44
74540;SHT31;66042;51.090;-115.340;2023-07-13T13:19:23;14.59;71.51
74540;SHT31;66042;51.090;-115.340;2023-07-13T13:21:54;14.58;71.58
74540;SHT31;66042;51.090;-115.340;2023-07-13T13:24:24;14.57;71.48
74540;SHT31;66042;51.090;-115.340;2023-07-13T13:26:53;14.55;71.56
74540;SHT31;66042;51.090;-115.340;2023-07-13T13:29:24;14.52;71.37
74540;SHT31;66042;51.090;-115.340;2023-07-13T13:31:53;14.53;71.33
74540;SHT31;66042;51.090;-115.340;2023-07-13T13:34:21;14.46;71.47
74540;SHT31;66042;51.090;-115.340;2023-07-13T13:36:50;14.35;71.72
74540;SHT31;66042;51.090;-115.340;2023-07-13T13:41:53;14.32;71.91
74540;SHT31;66042;51.090;-115.340;2023-07-13T13:44:21;14.34;71.92
74540;SHT31;66042;51.090;-115.340;2023-07-13T13:46:50;14.36;71.89
74540;SHT31;66042;51.090;-115.340;2023-07-13T13:49:23;14.40;71.81
74540;SHT31;66042;51.090;-115.340;2023-07-13T13:51:52;14.40;71.92
74540;SHT31;66042;51.090;-115.340;2023-07-13T13:54:21;14.39;71.85
74540;SHT31;66042;51.090;-115.340;2023-07-13T13:56:52;14.42;71.91
74540;SHT31;66042;51.090;-115.340;2023-07-13T13:59:19;14.43;72.01
74540;SHT31;66042;51.090;-115.340;2023-07-13T14:01:46;14.43;72.05
74540;SHT31;66042;51.090;-115.340;2023-07-13T14:04:16;14.44;72.04
74540;SHT31;66042;51.090;-115.340;2023-07-13T14:06:46;14.45;71.87
74540;SHT31;66042;51.090;-115.340;2023-07-13T14:09:15;14.48;71.94
74540;SHT31;66042;51.090;-115.340;2023-07-13T14:11:45;14.46;72.08
74540;SHT31;66042;51.090;-115.340;2023-07-13T14:14:16;14.48;71.96
74540;SHT31;66042;51.090;-115.340;2023-07-13T14:16:48;14.48;71.91
74540;SHT31;66042;51.090;-115.340;2023-07-13T14:19:20;14.48;71.69
74540;SHT31;66042;51.090;-115.340;2023-07-13T14:21:47;14.52;71.66
74540;SHT31;66042;51.090;-115.340;2023-07-13T14:24:14;14.55;71.92
74540;SHT31;66042;51.090;-115.340;2023-07-13T14:26:41;14.57;71.83
74540;SHT31;66042;51.090;-115.340;2023-07-13T14:29:16;14.55;71.84
74540;SHT31;66042;51.090;-115.340;2023-07-13T14:31:47;14.56;71.82
74540;SHT31;66042;51.090;-115.340;2023-07-13T14:34:14;14.60;71.83
74540;SHT31;66042;51.090;-115.340;2023-07-13T14:36:42;14.58;72.06
74540;SHT31;66042;51.090;-115.340;2023-07-13T14:39:23;14.58;72.13
74540;SHT31;66042;51.090;-115.340;2023-07-13T14:41:51;14.58;72.32
74540;SHT31;66042;51.090;-115.340;2023-07-13T14:44:22;14.57;72.40
74540;SHT31;66042;51.090;-115.340;2023-07-13T14:46:54;14.56;72.58
74540;SHT31;66042;51.090;-115.340;2023-07-13T14:49:37;14.58;72.54
74540;SHT31;66042;51.090;-115.340;2023-07-13T14:52:12;14.60;72.68
74540;SHT31;66042;51.090;-115.340;2023-07-13T14:54:43;14.63;72.63
74540;SHT31;66042;51.090;-115.340;2023-07-13T14:57:12;14.64;72.48
74540;SHT31;66042;51.090;-115.340;2023-07-13T14:59:41;14.56;72.35
74540;SHT31;66042;51.090;-115.340;2023-07-13T15:04:56;14.54;72.66
74540;SHT31;66042;51.090;-115.340;2023-07-13T15:07:24;14.57;72.84
74540;SHT31;66042;51.090;-115.340;2023-07-13T15:09:51;14.60;72.73
74540;SHT31;66042;51.090;-115.340;2023-07-13T15:12:18;14.66;72.76
74540;SHT31;66042;51.090;-115.340;2023-07-13T15:14:45;14.69;72.71
74540;SHT31;66042;51.090;-115.340;2023-07-13T15:17:24;14.74;72.71
74540;SHT31;66042;51.090;-115.340;2023-07-13T15:23:04;14.82;71.94
74540;SHT31;66042;51.090;-115.340;2023-07-13T15:25:32;14.81;72.20
74540;SHT31;66042;51.090;-115.340;2023-07-13T15:28:00;14.73;72.42
74540;SHT31;66042;51.090;-115.340;2023-07-13T15:30:31;14.71;72.42
74540;SHT31;66042;51.090;-115.340;2023-07-13T15:33:28;14.71;72.40
74540;SHT31;66042;51.090;-115.340;2023-07-13T15:35:56;14.77;72.51
74540;SHT31;66042;51.090;-115.340;2023-07-13T15:38:25;14.82;72.47
74540;SHT31;66042;51.090;-115.340;2023-07-13T15:40:55;14.81;72.20
74540;SHT31;66042;51.090;-115.340;2023-07-13T15:43:23;14.80;72.31
74540;SHT31;66042;51.090;-115.340;2023-07-13T15:45:52;14.84;72.33
74540;SHT31;66042;51.090;-115.340;2023-07-13T15:48:23;14.85;72.41
74540;SHT31;66042;51.090;-115.340;2023-07-13T15:51:00;14.89;72.52
74540;SHT31;66042;51.090;-115.340;2023-07-13T15:53:36;14.95;72.45
74540;SHT31;66042;51.090;-115.340;2023-07-13T15:56:22;14.99;72.46
74540;SHT31;66042;51.090;-115.340;2023-07-13T15:58:52;15.00;72.62
74540;SHT31;66042;51.090;-115.340;2023-07-13T16:01:22;14.96;72.46
74540;SHT31;66042;51.090;-115.340;2023-07-13T16:03:49;14.99;72.53
74540;SHT31;66042;51.090;-115.340;2023-07-13T16:06:20;15.03;72.38
74540;SHT31;66042;51.090;-115.340;2023-07-13T16:09:02;15.09;72.33
74540;SHT31;66042;51.090;-115.340;2023-07-13T16:11:38;15.12;72.24
74540;SHT31;66042;51.090;-115.340;2023-07-13T16:14:09;15.14;72.22